createdAt,value
2017-07-06T00:00:52.793Z,99.99
2017-07-06T00:01:52.779Z,99.99
2017-07-06T00:02:52.458Z,99.99
2017-07-06T00:03:52.755Z,99.99
2017-07-06T00:04:52.747Z,99.99
2017-07-06T00:05:52.742Z,99.99
2017-07-06T00:06:52.728Z,99.99
2017-07-06T00:07:52.725Z,99.99
2017-07-06T00:08:52.715Z,99.99
2017-07-06T00:09:52.704Z,99.99
2017-07-06T00:10:52.695Z,99.99
2017-07-06T00:11:52.371Z,99.99
2017-07-06T00:12:52.668Z,99.99
2017-07-06T00:13:52.350Z,99.99
2017-07-06T00:14:52.657Z,99.99
2017-07-06T00:15:52.638Z,99.99
2017-07-06T00:16:52.635Z,99.99
2017-07-06T00:17:52.617Z,99.99
2017-07-06T00:18:52.615Z,99.99
2017-07-06T00:19:52.600Z,99.99
2017-07-06T00:20:52.284Z,99.99
2017-07-06T00:21:52.580Z,99.99
2017-07-06T00:22:52.569Z,99.99
2017-07-06T00:23:52.254Z,99.99
2017-07-06T00:24:52.554Z,99.99
2017-07-06T00:25:52.539Z,99.99
2017-07-06T00:26:52.531Z,99.99
2017-07-06T00:27:52.528Z,99.99
2017-07-06T00:28:52.508Z,99.99
2017-07-06T00:29:52.502Z,99.99
2017-07-06T00:30:52.491Z,99.99
2017-07-06T00:31:52.174Z,99.99
2017-07-06T00:32:52.474Z,99.99
2017-07-06T00:33:52.467Z,99.99
2017-07-06T00:34:52.145Z,99.99
2017-07-06T00:35:52.446Z,99.99
2017-07-06T00:36:52.441Z,99.99
2017-07-06T00:37:52.120Z,99.99
2017-07-06T00:38:52.411Z,99.99
2017-07-06T00:39:52.410Z,99.99
2017-07-06T00:40:52.393Z,99.99
2017-07-06T00:41:52.383Z,99.99
2017-07-06T00:42:52.375Z,99.99
2017-07-06T00:43:52.055Z,99.99
2017-07-06T00:44:52.362Z,99.99
2017-07-06T00:45:52.349Z,99.99
2017-07-06T00:46:52.027Z,99.99
2017-07-06T00:47:52.331Z,99.99
2017-07-06T00:48:52.316Z,99.99
2017-07-06T00:49:52.308Z,99.99
2017-07-06T00:50:52.298Z,99.99
2017-07-06T00:51:52.289Z,99.99
2017-07-06T00:52:52.286Z,99.99
2017-07-06T00:53:52.270Z,99.99
2017-07-06T00:54:52.260Z,99.99
2017-07-06T00:55:52.250Z,99.99
2017-07-06T00:56:52.243Z,99.99
2017-07-06T00:57:52.229Z,99.99
2017-07-06T00:58:51.910Z,99.99
2017-07-06T00:59:52.216Z,99.99
2017-07-06T01:00:52.214Z,99.99
2017-07-06T01:01:52.246Z,99.99
2017-07-06T01:02:52.180Z,99.99
2017-07-06T01:03:52.179Z,99.99
2017-07-06T01:04:52.162Z,99.99
2017-07-06T01:05:52.159Z,99.99
2017-07-06T01:06:52.144Z,99.99
2017-07-06T01:07:52.131Z,99.99
2017-07-06T01:08:52.127Z,99.99
2017-07-06T01:09:52.114Z,99.99
2017-07-06T01:10:51.792Z,99.99
2017-07-06T01:11:52.098Z,99.99
2017-07-06T01:12:52.079Z,99.99
2017-07-06T01:13:52.073Z,99.99
2017-07-06T01:14:52.071Z,99.99
2017-07-06T01:15:52.052Z,99.99
2017-07-06T01:16:52.047Z,99.99
2017-07-06T01:17:52.039Z,99.99
2017-07-06T01:18:52.026Z,99.99
2017-07-06T01:19:52.020Z,99.99
2017-07-06T01:20:52.009Z,99.99
2017-07-06T01:21:51.997Z,99.99
2017-07-06T01:22:51.980Z,99.99
2017-07-06T01:23:51.977Z,99.99
2017-07-06T01:24:51.657Z,99.99
2017-07-06T01:25:51.953Z,99.99
2017-07-06T01:26:51.940Z,99.99
2017-07-06T01:27:51.627Z,99.99
2017-07-06T01:28:51.930Z,99.99
2017-07-06T01:29:51.912Z,99.99
2017-07-06T01:30:51.907Z,99.99
2017-07-06T01:31:51.896Z,99.99
2017-07-06T01:32:51.577Z,99.99
2017-07-06T01:33:51.869Z,99.99
2017-07-06T01:34:51.549Z,99.99
2017-07-06T01:35:51.543Z,99.99
2017-07-06T01:36:51.533Z,99.99
2017-07-06T01:37:51.826Z,99.99
2017-07-06T01:38:51.818Z,99.99
2017-07-06T01:39:51.807Z,99.99
2017-07-06T01:40:51.809Z,99.99
2017-07-06T01:41:51.788Z,99.99
2017-07-06T01:42:51.777Z,99.99
2017-07-06T01:43:51.766Z,99.99
2017-07-06T01:44:51.757Z,99.99
2017-07-06T01:45:51.748Z,99.99
2017-07-06T01:46:51.745Z,99.99
2017-07-06T01:47:51.733Z,99.99
2017-07-06T01:48:51.722Z,99.99
2017-07-06T01:49:51.769Z,99.99
2017-07-06T01:50:51.705Z,99.99
2017-07-06T01:51:51.692Z,99.99
2017-07-06T01:52:51.678Z,99.99
2017-07-06T01:53:51.673Z,99.99
2017-07-06T01:54:51.658Z,99.99
2017-07-06T01:55:51.652Z,99.99
2017-07-06T01:56:51.636Z,99.99
2017-07-06T01:57:51.625Z,99.99
2017-07-06T01:58:51.618Z,99.99
2017-07-06T01:59:51.614Z,99.99
2017-07-06T02:00:51.597Z,99.99
2017-07-06T02:01:51.597Z,99.99
2017-07-06T02:02:51.582Z,99.99
2017-07-06T02:03:51.567Z,99.99
2017-07-06T02:04:51.560Z,99.99
2017-07-06T02:05:51.546Z,99.99
2017-07-06T02:06:51.544Z,99.99
2017-07-06T02:07:51.522Z,99.99
2017-07-06T02:08:51.517Z,99.99
2017-07-06T02:09:51.513Z,99.99
2017-07-06T02:10:51.502Z,99.99
2017-07-06T02:11:51.493Z,99.99
2017-07-06T02:12:51.483Z,99.99
2017-07-06T02:13:51.472Z,99.99
2017-07-06T02:14:51.468Z,99.99
2017-07-06T02:15:51.450Z,99.99
2017-07-06T02:16:51.441Z,99.99
2017-07-06T02:17:51.426Z,99.99
2017-07-06T02:18:51.420Z,99.99
2017-07-06T02:19:51.406Z,99.99
2017-07-06T02:20:51.393Z,99.99
2017-07-06T02:21:51.390Z,99.99
2017-07-06T02:22:51.380Z,99.99
2017-07-06T02:23:51.056Z,99.99
2017-07-06T02:24:51.361Z,99.99
2017-07-06T02:25:51.352Z,99.99
2017-07-06T02:26:51.339Z,99.99
2017-07-06T02:27:51.334Z,99.99
2017-07-06T02:28:51.321Z,99.99
2017-07-06T02:29:51.305Z,99.99
2017-07-06T02:30:51.298Z,99.99
2017-07-06T02:31:51.285Z,99.99
2017-07-06T02:32:51.274Z,99.99
2017-07-06T02:33:51.260Z,99.99
2017-07-06T02:34:51.253Z,99.99
2017-07-06T02:35:51.251Z,99.99
2017-07-06T02:36:51.237Z,99.99
2017-07-06T02:37:51.220Z,99.99
2017-07-06T02:38:51.220Z,99.99
2017-07-06T02:39:51.208Z,99.99
2017-07-06T02:40:51.192Z,99.99
2017-07-06T02:41:51.187Z,99.99
2017-07-06T02:42:51.178Z,99.99
2017-07-06T02:43:51.161Z,99.99
2017-07-06T02:44:51.158Z,99.99
2017-07-06T02:45:50.830Z,99.99
2017-07-06T02:46:50.821Z,99.99
2017-07-06T02:47:51.118Z,99.99
2017-07-06T02:48:51.118Z,99.99
2017-07-06T02:49:51.098Z,99.99
2017-07-06T02:50:51.109Z,99.99
2017-07-06T02:51:51.089Z,99.99
2017-07-06T02:52:50.758Z,99.99
2017-07-06T02:53:50.753Z,99.99
2017-07-06T02:54:51.055Z,99.99
2017-07-06T02:55:51.052Z,99.99
2017-07-06T02:56:50.724Z,99.99
2017-07-06T02:57:51.023Z,99.99
2017-07-06T02:58:51.007Z,99.99
2017-07-06T02:59:50.999Z,99.99
2017-07-06T03:00:50.994Z,99.99
2017-07-06T03:01:50.982Z,99.99
2017-07-06T03:02:50.973Z,99.99
2017-07-06T03:03:50.967Z,99.99
2017-07-06T03:04:50.948Z,99.99
2017-07-06T03:05:50.641Z,99.99
2017-07-06T03:06:50.931Z,99.99
2017-07-06T03:07:50.972Z,99.99
2017-07-06T03:08:50.906Z,99.99
2017-07-06T03:09:50.950Z,99.99
2017-07-06T03:10:50.890Z,99.99
2017-07-06T03:11:50.888Z,99.99
2017-07-06T03:12:50.870Z,99.99
2017-07-06T03:13:50.855Z,99.99
2017-07-06T03:14:50.847Z,99.99
2017-07-06T03:15:50.842Z,99.99
2017-07-06T03:16:50.826Z,99.99
2017-07-06T03:17:50.820Z,99.99
2017-07-06T03:18:50.500Z,99.99
2017-07-06T03:19:50.801Z,99.99
2017-07-06T03:20:50.784Z,99.99
2017-07-06T03:21:50.776Z,99.99
2017-07-06T03:22:50.766Z,99.99
2017-07-06T03:23:50.758Z,99.99
2017-07-06T03:24:50.745Z,99.99
2017-07-06T03:25:50.734Z,99.99
2017-07-06T03:26:50.724Z,99.99
2017-07-06T03:27:50.715Z,99.99
2017-07-06T03:28:50.714Z,99.99
2017-07-06T03:29:50.694Z,99.99
2017-07-06T03:30:50.685Z,99.99
2017-07-06T03:31:50.680Z,99.99
2017-07-06T03:32:50.672Z,99.99
2017-07-06T03:33:50.655Z,99.99
2017-07-06T03:34:50.644Z,99.99
2017-07-06T03:35:50.633Z,99.99
2017-07-06T03:36:50.631Z,99.99
2017-07-06T03:37:50.621Z,99.99
2017-07-06T03:38:50.612Z,99.99
2017-07-06T03:39:50.286Z,99.99
2017-07-06T03:40:50.581Z,99.99
2017-07-06T03:41:50.579Z,99.99
2017-07-06T03:42:50.566Z,99.99
2017-07-06T03:43:50.559Z,99.99
2017-07-06T03:44:50.553Z,99.99
2017-07-06T03:45:50.539Z,99.99
2017-07-06T03:46:50.522Z,99.99
2017-07-06T03:47:50.511Z,99.99
2017-07-06T03:48:50.508Z,99.99
2017-07-06T03:49:50.492Z,99.99
2017-07-06T03:50:50.172Z,99.99
2017-07-06T03:51:50.480Z,99.99
2017-07-06T03:52:50.467Z,99.99
2017-07-06T03:53:50.461Z,99.99
2017-07-06T03:54:50.441Z,99.99
2017-07-06T03:55:50.436Z,99.99
2017-07-06T03:56:50.430Z,99.99
2017-07-06T03:57:50.410Z,99.99
2017-07-06T03:58:50.397Z,99.99
2017-07-06T03:59:50.391Z,99.99
2017-07-06T04:00:50.381Z,99.99
2017-07-06T04:01:50.369Z,99.99
2017-07-06T04:02:50.365Z,99.99
2017-07-06T04:03:50.346Z,99.99
2017-07-06T04:04:50.337Z,99.99
2017-07-06T04:05:50.325Z,99.99
2017-07-06T04:06:50.322Z,99.99
2017-07-06T04:07:50.312Z,99.99
2017-07-06T04:08:50.301Z,99.99
2017-07-06T04:09:50.293Z,99.99
2017-07-06T04:10:50.277Z,99.99
2017-07-06T04:11:50.269Z,99.99
2017-07-06T04:12:50.260Z,99.99
2017-07-06T04:13:50.244Z,99.99
2017-07-06T04:14:50.237Z,99.99
2017-07-06T04:15:50.223Z,99.99
2017-07-06T04:16:50.222Z,99.99
2017-07-06T04:17:50.204Z,99.99
2017-07-06T04:18:50.206Z,99.99
2017-07-06T04:19:50.195Z,99.99
2017-07-06T04:20:50.171Z,99.99
2017-07-06T04:21:50.170Z,99.99
2017-07-06T04:22:50.149Z,99.99
2017-07-06T04:23:49.831Z,99.99
2017-07-06T04:24:50.137Z,99.99
2017-07-06T04:25:50.119Z,99.99
2017-07-06T04:26:50.117Z,99.99
2017-07-06T04:27:50.100Z,99.99
2017-07-06T04:28:50.095Z,99.99
2017-07-06T04:29:50.079Z,99.99
2017-07-06T04:30:50.077Z,99.99
2017-07-06T04:31:49.751Z,99.99
2017-07-06T04:32:50.047Z,99.99
2017-07-06T04:33:50.037Z,99.99
2017-07-06T04:34:50.034Z,99.99
2017-07-06T04:35:49.716Z,99.99
2017-07-06T04:36:50.014Z,99.99
2017-07-06T04:37:49.688Z,99.99
2017-07-06T04:38:49.991Z,99.99
2017-07-06T04:39:49.984Z,99.99
2017-07-06T04:40:49.971Z,99.99
2017-07-06T04:41:49.961Z,99.99
2017-07-06T04:42:49.945Z,99.99
2017-07-06T04:43:49.939Z,99.99
2017-07-06T04:44:49.922Z,99.99
2017-07-06T04:45:49.921Z,99.99
2017-07-06T04:46:49.909Z,99.99
2017-07-06T04:47:49.900Z,99.99
2017-07-06T04:48:49.884Z,99.99
2017-07-06T04:49:49.878Z,99.99
2017-07-06T04:50:49.863Z,99.99
2017-07-06T04:51:49.859Z,99.99
2017-07-06T04:52:49.539Z,99.99
2017-07-06T04:53:49.524Z,99.99
2017-07-06T04:54:49.823Z,99.99
2017-07-06T04:55:49.818Z,99.99
2017-07-06T04:56:49.801Z,99.99
2017-07-06T04:57:49.792Z,99.99
2017-07-06T04:58:49.783Z,99.99
2017-07-06T04:59:49.777Z,99.99
2017-07-06T05:00:49.761Z,99.99
2017-07-06T05:01:49.761Z,99.99
2017-07-06T05:02:49.745Z,99.99
2017-07-06T05:03:49.755Z,99.99
2017-07-06T05:04:49.726Z,99.99
2017-07-06T05:05:49.714Z,99.99
2017-07-06T05:06:49.709Z,99.99
2017-07-06T05:07:49.701Z,99.99
2017-07-06T05:08:49.690Z,99.99
2017-07-06T05:09:49.676Z,99.99
2017-07-06T05:10:49.665Z,99.99
2017-07-06T05:11:49.664Z,99.99
2017-07-06T05:12:49.654Z,99.99
2017-07-06T05:13:49.636Z,99.99
2017-07-06T05:14:49.633Z,99.99
2017-07-06T05:15:49.622Z,99.99
2017-07-06T05:16:49.614Z,99.99
2017-07-06T05:17:49.599Z,99.99
2017-07-06T05:18:49.589Z,99.99
2017-07-06T05:19:49.587Z,99.99
2017-07-06T05:20:49.570Z,99.99
2017-07-06T05:21:49.562Z,99.99
2017-07-06T05:22:49.553Z,99.99
2017-07-06T05:23:49.230Z,99.99
2017-07-06T05:24:49.536Z,99.99
2017-07-06T05:25:49.520Z,99.99
2017-07-06T05:26:49.518Z,99.99
2017-07-06T05:27:49.501Z,99.99
2017-07-06T05:28:49.499Z,99.99
2017-07-06T05:29:49.483Z,99.99
2017-07-06T05:30:49.478Z,99.99
2017-07-06T05:31:49.467Z,99.99
2017-07-06T05:32:49.453Z,99.99
2017-07-06T05:33:49.450Z,99.99
2017-07-06T05:34:49.436Z,99.99
2017-07-06T05:35:49.425Z,99.99
2017-07-06T05:36:49.415Z,99.99
2017-07-06T05:37:49.411Z,99.99
2017-07-06T05:38:49.396Z,99.99
2017-07-06T05:39:49.084Z,99.99
2017-07-06T05:40:49.386Z,99.99
2017-07-06T05:41:49.371Z,99.99
2017-07-06T05:42:49.366Z,99.99
2017-07-06T05:43:49.350Z,99.99
2017-07-06T05:44:49.340Z,99.99
2017-07-06T05:45:49.335Z,99.99
2017-07-06T05:46:49.321Z,99.99
2017-07-06T05:47:49.009Z,99.99
2017-07-06T05:48:49.310Z,99.99
2017-07-06T05:49:49.312Z,99.99
2017-07-06T05:50:49.288Z,99.99
2017-07-06T05:51:49.334Z,99.99
2017-07-06T05:52:49.273Z,99.99
2017-07-06T05:53:49.264Z,99.99
2017-07-06T05:54:49.250Z,99.99
2017-07-06T05:55:49.242Z,99.99
2017-07-06T05:56:49.235Z,99.99
2017-07-06T05:57:48.919Z,99.99
2017-07-06T05:58:49.215Z,99.99
2017-07-06T05:59:49.210Z,99.99
2017-07-06T06:00:49.206Z,99.99
2017-07-06T06:01:49.189Z,99.99
2017-07-06T06:02:49.189Z,99.99
2017-07-06T06:03:49.181Z,99.99
2017-07-06T06:04:49.165Z,99.99
2017-07-06T06:05:49.150Z,99.99
2017-07-06T06:06:49.142Z,99.99
2017-07-06T06:07:49.143Z,99.99
2017-07-06T06:08:49.131Z,99.99
2017-07-06T06:09:49.121Z,99.99
2017-07-06T06:10:49.116Z,99.99
2017-07-06T06:11:49.098Z,99.99
2017-07-06T06:12:49.090Z,99.99
2017-07-06T06:13:49.083Z,99.99
2017-07-06T06:14:49.078Z,99.99
2017-07-06T06:15:49.063Z,99.99
2017-07-06T06:16:49.062Z,99.99
2017-07-06T06:17:49.048Z,99.99
2017-07-06T06:18:49.045Z,99.99
2017-07-06T06:19:49.089Z,99.99
2017-07-06T06:20:49.023Z,99.99
2017-07-06T06:21:49.019Z,99.99
2017-07-06T06:22:49.011Z,99.99
2017-07-06T06:23:48.691Z,99.99
2017-07-06T06:24:48.987Z,99.99
2017-07-06T06:25:48.985Z,99.99
2017-07-06T06:26:48.972Z,99.99
2017-07-06T06:27:48.964Z,99.99
2017-07-06T06:28:48.956Z,99.99
2017-07-06T06:29:48.946Z,99.99
2017-07-06T06:30:48.947Z,99.99
2017-07-06T06:31:48.932Z,99.99
2017-07-06T06:32:48.925Z,99.99
2017-07-06T06:33:48.603Z,99.99
2017-07-06T06:34:48.914Z,99.99
2017-07-06T06:35:48.900Z,99.99
2017-07-06T06:36:48.890Z,99.99
2017-07-06T06:37:48.880Z,99.99
2017-07-06T06:38:48.877Z,99.99
2017-07-06T06:39:48.871Z,99.99
2017-07-06T06:40:48.864Z,99.99
2017-07-06T06:41:48.856Z,99.99
2017-07-06T06:42:48.898Z,99.99
2017-07-06T06:43:48.837Z,99.99
2017-07-06T06:44:48.828Z,99.99
2017-07-06T06:45:48.826Z,99.99
2017-07-06T06:46:48.814Z,99.99
2017-07-06T06:47:48.810Z,99.99
2017-07-06T06:48:48.809Z,99.99
2017-07-06T06:49:48.789Z,99.99
2017-07-06T06:50:48.788Z,99.99
2017-07-06T06:51:48.784Z,99.99
2017-07-06T06:52:48.455Z,99.99
2017-07-06T06:53:48.757Z,99.99
2017-07-06T06:54:48.749Z,99.99
2017-07-06T06:55:48.754Z,99.99
2017-07-06T06:56:48.740Z,99.99
2017-07-06T06:57:48.733Z,99.99
2017-07-06T06:58:48.719Z,99.99
2017-07-06T06:59:48.717Z,99.99
2017-07-06T07:00:48.702Z,99.99
2017-07-06T07:01:48.696Z,99.99
2017-07-06T07:02:48.691Z,99.99
2017-07-06T07:03:48.682Z,99.99
2017-07-06T07:04:48.680Z,99.99
2017-07-06T07:05:48.670Z,99.99
2017-07-06T07:06:48.693Z,99.99
2017-07-06T07:07:48.661Z,99.99
2017-07-06T07:08:48.647Z,99.99
2017-07-06T07:09:48.643Z,99.99
2017-07-06T07:10:48.634Z,99.99
2017-07-06T07:11:48.628Z,99.99
2017-07-06T07:12:48.620Z,99.99
2017-07-06T07:13:48.615Z,99.99
2017-07-06T07:14:48.608Z,99.99
2017-07-06T07:15:48.609Z,99.99
2017-07-06T07:16:48.596Z,99.99
2017-07-06T07:17:48.595Z,99.99
2017-07-06T07:18:48.583Z,99.99
2017-07-06T07:19:48.272Z,99.99
2017-07-06T07:20:48.576Z,99.99
2017-07-06T07:21:48.568Z,99.99
2017-07-06T07:22:48.564Z,99.99
2017-07-06T07:23:48.549Z,99.99
2017-07-06T07:24:48.550Z,99.99
2017-07-06T07:25:48.546Z,99.99
2017-07-06T07:26:48.531Z,99.99
2017-07-06T07:27:48.524Z,99.99
2017-07-06T07:28:48.214Z,99.99
2017-07-06T07:29:48.203Z,99.99
2017-07-06T07:30:48.203Z,99.99
2017-07-06T07:31:48.499Z,99.99
2017-07-06T07:32:48.184Z,99.99
2017-07-06T07:33:48.183Z,99.99
2017-07-06T07:34:48.487Z,99.99
2017-07-06T07:35:48.168Z,99.99
2017-07-06T07:36:48.160Z,99.99
2017-07-06T07:37:48.154Z,99.99
2017-07-06T07:38:48.145Z,99.99
2017-07-06T07:39:48.459Z,99.99
2017-07-06T07:40:48.132Z,99.99
2017-07-06T07:41:48.440Z,99.99
2017-07-06T07:42:48.430Z,99.99
2017-07-06T07:43:48.424Z,99.99
2017-07-06T07:44:48.422Z,99.99
2017-07-06T07:45:48.416Z,99.99
2017-07-06T07:46:48.409Z,99.99
2017-07-06T07:47:48.406Z,99.99
2017-07-06T07:48:48.392Z,99.99
2017-07-06T07:49:48.390Z,99.99
2017-07-06T07:50:48.384Z,99.99
2017-07-06T07:51:48.372Z,99.99
2017-07-06T07:52:48.366Z,99.99
2017-07-06T07:53:48.370Z,99.99
2017-07-06T07:54:48.361Z,99.99
2017-07-06T07:55:48.349Z,99.99
2017-07-06T07:56:48.348Z,99.99
2017-07-06T07:57:48.341Z,99.99
2017-07-06T07:58:48.329Z,99.99
2017-07-06T07:59:48.332Z,99.99
2017-07-06T08:00:48.321Z,99.99
2017-07-06T08:01:48.329Z,99.99
2017-07-06T08:02:48.316Z,99.99
2017-07-06T08:03:48.318Z,99.99
2017-07-06T08:04:48.307Z,99.99
2017-07-06T08:05:48.294Z,99.99
2017-07-06T08:06:48.285Z,99.99
2017-07-06T08:07:48.288Z,99.99
2017-07-06T08:08:47.964Z,99.99
2017-07-06T08:09:47.961Z,99.99
2017-07-06T08:10:48.263Z,99.99
2017-07-06T08:11:47.947Z,99.99
2017-07-06T08:12:48.256Z,99.99
2017-07-06T08:13:48.245Z,99.99
2017-07-06T08:14:48.246Z,99.99
2017-07-06T08:15:48.235Z,99.99
2017-07-06T08:16:48.228Z,99.99
2017-07-06T08:17:48.230Z,99.99
2017-07-06T08:18:48.227Z,99.99
2017-07-06T08:19:48.224Z,99.99
2017-07-06T08:20:48.215Z,99.99
2017-07-06T08:21:48.206Z,99.91
2017-07-06T08:22:47.897Z,99.99
2017-07-06T08:23:48.195Z,99.99
2017-07-06T08:24:48.198Z,99.99
2017-07-06T08:25:47.876Z,99.99
2017-07-06T08:26:48.182Z,99.99
2017-07-06T08:27:48.181Z,99.99
2017-07-06T08:28:48.178Z,99.99
2017-07-06T08:29:48.177Z,99.99
2017-07-06T08:30:48.165Z,99.99
2017-07-06T08:31:48.164Z,99.99
2017-07-06T08:32:48.159Z,99.99
2017-07-06T08:33:48.145Z,99.99
2017-07-06T08:34:48.147Z,99.99
2017-07-06T08:35:48.148Z,99.99
2017-07-06T08:36:48.131Z,99.99
2017-07-06T08:37:48.124Z,99.99
2017-07-06T08:38:48.126Z,99.99
2017-07-06T08:39:48.115Z,99.99
2017-07-06T08:40:48.118Z,99.99
2017-07-06T08:41:48.105Z,99.99
2017-07-06T08:42:48.109Z,99.99
2017-07-06T08:43:48.096Z,99.99
2017-07-06T08:44:48.103Z,99.99
2017-07-06T08:45:47.778Z,99.99
2017-07-06T08:46:48.087Z,99.99
2017-07-06T08:47:48.086Z,99.99
2017-07-06T08:48:47.765Z,99.99
2017-07-06T08:49:48.072Z,99.99
2017-07-06T08:50:48.074Z,99.99
2017-07-06T08:51:48.061Z,99.99
2017-07-06T08:52:48.058Z,99.91
2017-07-06T08:53:48.051Z,99.91
2017-07-06T08:54:48.049Z,99.99
2017-07-06T08:55:48.044Z,99.82
2017-07-06T08:56:48.045Z,99.63
2017-07-06T08:57:48.042Z,99.63
2017-07-06T08:58:48.038Z,99.63
2017-07-06T08:59:48.029Z,99.15
2017-07-06T09:00:48.023Z,99.99
2017-07-06T09:01:48.026Z,99.19
2017-07-06T09:02:48.019Z,99.24
2017-07-06T09:03:47.705Z,99.53
2017-07-06T09:04:48.006Z,99.48
2017-07-06T09:05:48.008Z,98.96
2017-07-06T09:06:48.009Z,99.19
2017-07-06T09:07:47.686Z,99.24
2017-07-06T09:08:47.995Z,99.1
2017-07-06T09:09:47.988Z,99.1
2017-07-06T09:10:47.985Z,98.91
2017-07-06T09:11:47.981Z,98.91
2017-07-06T09:12:47.972Z,98.72
2017-07-06T09:13:47.969Z,98.86
2017-07-06T09:14:47.958Z,98.72
2017-07-06T09:15:47.961Z,98.82
2017-07-06T09:16:47.953Z,98.72
2017-07-06T09:17:47.963Z,98.53
2017-07-06T09:18:47.950Z,98.53
2017-07-06T09:19:47.633Z,98.24
2017-07-06T09:20:47.944Z,98.33
2017-07-06T09:21:47.626Z,98.14
2017-07-06T09:22:47.933Z,98.14
2017-07-06T09:23:47.619Z,98
2017-07-06T09:24:47.920Z,97.76
2017-07-06T09:25:47.921Z,98.24
2017-07-06T09:26:47.923Z,97.76
2017-07-06T09:27:47.913Z,98.19
2017-07-06T09:28:47.905Z,97.76
2017-07-06T09:29:47.896Z,97.85
2017-07-06T09:30:47.902Z,97.71
2017-07-06T09:31:47.905Z,97.76
2017-07-06T09:32:47.576Z,97.81
2017-07-06T09:33:47.881Z,98.05
2017-07-06T09:34:47.886Z,98.05
2017-07-06T09:35:47.871Z,98.24
2017-07-06T09:36:47.875Z,97.47
2017-07-06T09:37:47.873Z,97.9
2017-07-06T09:38:47.555Z,98
2017-07-06T09:39:47.859Z,97.9
2017-07-06T09:40:47.544Z,97.71
2017-07-06T09:41:47.845Z,97.85
2017-07-06T09:42:47.841Z,97.9
2017-07-06T09:43:47.842Z,97.85
2017-07-06T09:44:47.830Z,97.52
2017-07-06T09:45:47.826Z,97.9
2017-07-06T09:46:47.817Z,98
2017-07-06T09:47:47.830Z,98.19
2017-07-06T09:48:47.809Z,98.19
2017-07-06T09:49:47.497Z,98.33
2017-07-06T09:50:47.487Z,98
2017-07-06T09:51:47.481Z,98.66
2017-07-06T09:52:47.786Z,98.52
2017-07-06T09:53:47.789Z,98.52
2017-07-06T09:54:47.774Z,98.86
2017-07-06T09:55:47.772Z,98.81
2017-07-06T09:56:47.772Z,98.67
2017-07-06T09:57:47.450Z,98.38
2017-07-06T09:58:47.753Z,98.24
2017-07-06T09:59:47.756Z,97.56
2017-07-06T10:00:47.751Z,97.76
2017-07-06T10:01:47.752Z,97.85
2017-07-06T10:02:47.429Z,97.8
2017-07-06T10:03:47.423Z,97.8
2017-07-06T10:04:47.731Z,98.1
2017-07-06T10:05:47.728Z,97.9
2017-07-06T10:06:47.722Z,98.1
2017-07-06T10:07:47.402Z,97.56
2017-07-06T10:08:47.706Z,98.19
2017-07-06T10:09:47.711Z,97.47
2017-07-06T10:10:47.697Z,97.61
2017-07-06T10:11:47.693Z,97.56
2017-07-06T10:12:47.695Z,97.14
2017-07-06T10:13:47.695Z,97.33
2017-07-06T10:14:47.684Z,97.33
2017-07-06T10:15:47.370Z,97.38
2017-07-06T10:16:47.680Z,97.04
2017-07-06T10:17:47.672Z,97.04
2017-07-06T10:18:47.659Z,97.09
2017-07-06T10:19:47.654Z,97.28
2017-07-06T10:20:47.658Z,97.28
2017-07-06T10:21:47.650Z,96.84
2017-07-06T10:22:47.335Z,97.33
2017-07-06T10:23:47.327Z,97.04
2017-07-06T10:24:47.630Z,97.23
2017-07-06T10:25:47.634Z,97.38
2017-07-06T10:26:47.621Z,96.94
2017-07-06T10:27:47.624Z,97.47
2017-07-06T10:28:47.620Z,96.8
2017-07-06T10:29:47.606Z,96.94
2017-07-06T10:30:47.605Z,96.85
2017-07-06T10:31:47.599Z,96.8
2017-07-06T10:32:47.599Z,96.42
2017-07-06T10:33:47.593Z,96.51
2017-07-06T10:34:47.282Z,96.56
2017-07-06T10:35:47.587Z,96.7
2017-07-06T10:36:47.577Z,96.7
2017-07-06T10:37:47.577Z,96.03
2017-07-06T10:38:47.580Z,96.51
2017-07-06T10:39:47.569Z,95.89
2017-07-06T10:40:47.567Z,96.03
2017-07-06T10:41:47.556Z,96.03
2017-07-06T10:42:47.558Z,95.5
2017-07-06T10:43:47.555Z,95.55
2017-07-06T10:44:47.552Z,95.36
2017-07-06T10:45:47.539Z,95.46
2017-07-06T10:46:47.538Z,95.46
2017-07-06T10:47:47.530Z,95.6
2017-07-06T10:48:47.218Z,95.79
2017-07-06T10:49:47.523Z,95.79
2017-07-06T10:50:47.517Z,95.45
2017-07-06T10:51:47.514Z,95.6
2017-07-06T10:52:47.517Z,95.65
2017-07-06T10:53:47.506Z,95.94
2017-07-06T10:54:47.198Z,95.74
2017-07-06T10:55:47.506Z,95.02
2017-07-06T10:56:47.501Z,94.87
2017-07-06T10:57:47.496Z,94.73
2017-07-06T10:58:47.488Z,93.96
2017-07-06T10:59:47.494Z,93.96
2017-07-06T11:00:47.175Z,93.77
2017-07-06T11:01:47.481Z,93.49
2017-07-06T11:02:47.480Z,93.73
2017-07-06T11:03:47.483Z,93.97
2017-07-06T11:04:47.475Z,93.97
2017-07-06T11:05:47.463Z,94.12
2017-07-06T11:06:47.462Z,94.17
2017-07-06T11:07:47.463Z,93.98
2017-07-06T11:08:47.467Z,94.4
2017-07-06T11:09:47.454Z,94.45
2017-07-06T11:10:47.458Z,94.65
2017-07-06T11:11:47.443Z,94.6
2017-07-06T11:12:47.443Z,94.93
2017-07-06T11:13:47.128Z,95.12
2017-07-06T11:14:47.124Z,95.51
2017-07-06T11:15:47.435Z,95.36
2017-07-06T11:16:47.115Z,95.41
2017-07-06T11:17:47.430Z,95.65
2017-07-06T11:18:47.108Z,95.41
2017-07-06T11:19:47.413Z,95.31
2017-07-06T11:20:47.415Z,95.65
2017-07-06T11:21:47.401Z,96.08
2017-07-06T11:22:47.403Z,96.42
2017-07-06T11:23:47.402Z,96.32
2017-07-06T11:24:47.389Z,96.13
2017-07-06T11:25:47.388Z,95.98
2017-07-06T11:26:47.376Z,95.84
2017-07-06T11:27:47.379Z,95.55
2017-07-06T11:28:47.374Z,95.89
2017-07-06T11:29:47.363Z,95.84
2017-07-06T11:30:47.360Z,95.36
2017-07-06T11:31:47.367Z,95.26
2017-07-06T11:32:47.360Z,95.21
2017-07-06T11:33:47.358Z,95.36
2017-07-06T11:34:47.354Z,94.64
2017-07-06T11:35:47.353Z,95.17
2017-07-06T11:36:47.349Z,95.31
2017-07-06T11:37:47.339Z,95.5
2017-07-06T11:38:47.335Z,95.17
2017-07-06T11:39:47.334Z,95.5
2017-07-06T11:40:47.334Z,95.31
2017-07-06T11:41:47.325Z,95.26
2017-07-06T11:42:47.325Z,94.44
2017-07-06T11:43:47.327Z,94.54
2017-07-06T11:44:47.323Z,94.26
2017-07-06T11:45:47.314Z,94.26
2017-07-06T11:46:47.319Z,94.49
2017-07-06T11:47:47.319Z,94.54
2017-07-06T11:48:47.305Z,94.45
2017-07-06T11:49:47.001Z,93.87
2017-07-06T11:50:47.312Z,93.63
2017-07-06T11:51:47.308Z,93.54
2017-07-06T11:52:47.304Z,93.59
2017-07-06T11:53:47.302Z,94.07
2017-07-06T11:54:47.291Z,94.31
2017-07-06T11:55:47.294Z,93.59
2017-07-06T11:56:46.975Z,93.77
2017-07-06T11:57:47.286Z,93.63
2017-07-06T11:58:47.279Z,93.82
2017-07-06T11:59:47.286Z,94.12
2017-07-06T12:00:46.967Z,94.59
2017-07-06T12:01:46.959Z,94.78
2017-07-06T12:02:47.272Z,94.54
2017-07-06T12:03:47.267Z,94.54
2017-07-06T12:04:46.955Z,94.64
2017-07-06T12:05:47.268Z,94.54
2017-07-06T12:06:47.253Z,95.21
2017-07-06T12:07:47.262Z,95.5
2017-07-06T12:08:46.942Z,95.36
2017-07-06T12:09:47.241Z,95.94
2017-07-06T12:10:47.248Z,95.4
2017-07-06T12:11:47.244Z,94.69
2017-07-06T12:12:46.926Z,95.07
2017-07-06T12:13:47.237Z,94.84
2017-07-06T12:14:47.235Z,95.07
2017-07-06T12:15:47.233Z,95.79
2017-07-06T12:16:47.229Z,95.26
2017-07-06T12:17:47.223Z,95.26
2017-07-06T12:18:47.212Z,95.17
2017-07-06T12:19:47.211Z,94.82
2017-07-06T12:20:47.208Z,94.29
2017-07-06T12:21:47.211Z,94.68
2017-07-06T12:22:46.900Z,94.06
2017-07-06T12:23:47.215Z,94.06
2017-07-06T12:24:47.195Z,93.82
2017-07-06T12:25:47.206Z,93.52
2017-07-06T12:26:47.201Z,93.38
2017-07-06T12:27:47.199Z,92.61
2017-07-06T12:28:46.925Z,92.57
2017-07-06T12:29:46.882Z,92.71
2017-07-06T12:30:46.875Z,92.38
2017-07-06T12:31:47.180Z,92.72
2017-07-06T12:32:47.185Z,92.95
2017-07-06T12:33:47.178Z,93.09
2017-07-06T12:34:47.182Z,93.24
2017-07-06T12:35:47.180Z,92.27
2017-07-06T12:36:47.178Z,92.42
2017-07-06T12:37:47.177Z,91.99
2017-07-06T12:38:47.174Z,91.81
2017-07-06T12:39:47.164Z,92.1
2017-07-06T12:40:47.160Z,92.15
2017-07-06T12:41:46.859Z,92.68
2017-07-06T12:42:47.158Z,92.91
2017-07-06T12:43:47.163Z,92.95
2017-07-06T12:44:47.159Z,93.05
2017-07-06T12:45:47.157Z,92.66
2017-07-06T12:46:47.154Z,92.66
2017-07-06T12:47:47.153Z,92.61
2017-07-06T12:48:47.143Z,92.61
2017-07-06T12:49:47.147Z,92.42
2017-07-06T12:50:47.146Z,92.32
2017-07-06T12:51:47.144Z,92.18
2017-07-06T12:52:47.144Z,92.08
2017-07-06T12:53:47.138Z,92.18